createdAt,value
2019-01-11T00:01:37.668Z,70.63
2019-01-11T00:04:05.532Z,70.60
2019-01-11T00:06:33.639Z,70.66
2019-01-11T00:09:01.608Z,70.47
2019-01-11T00:11:29.599Z,69.97
2019-01-11T00:13:57.529Z,70.21
2019-01-11T00:16:25.548Z,70.46
2019-01-11T00:18:53.526Z,70.18
2019-01-11T00:21:21.450Z,69.80
2019-01-11T00:23:49.626Z,69.24
2019-01-11T00:26:17.650Z,69.30
2019-01-11T00:28:45.696Z,69.94
2019-01-11T00:31:13.603Z,69.78
2019-01-11T00:33:41.781Z,69.47
2019-01-11T00:36:09.785Z,69.75
2019-01-11T00:38:37.837Z,70.18
2019-01-11T00:41:06.092Z,70.38
2019-01-11T00:43:36.485Z,70.34
2019-01-11T00:46:04.475Z,70.20
2019-01-11T00:48:32.386Z,70.17
2019-01-11T00:51:00.157Z,69.77
2019-01-11T00:53:27.940Z,69.65
2019-01-11T00:55:55.717Z,69.14
2019-01-11T00:58:23.612Z,70.12
2019-01-11T01:00:51.400Z,69.70
2019-01-11T01:03:19.290Z,69.79
2019-01-11T01:05:48.151Z,70.57
2019-01-11T01:08:16.093Z,71.25
2019-01-11T01:10:43.924Z,72.15
2019-01-11T01:13:11.834Z,72.07
2019-01-11T01:15:39.596Z,71.65
2019-01-11T01:18:07.631Z,72.39
2019-01-11T01:20:35.790Z,72.47
2019-01-11T01:23:03.762Z,72.40
2019-01-11T01:25:31.522Z,72.27
2019-01-11T01:27:59.258Z,72.24
2019-01-11T01:30:27.002Z,71.76
2019-01-11T01:32:54.921Z,71.13
2019-01-11T01:35:22.674Z,71.12
2019-01-11T01:37:50.624Z,70.92
2019-01-11T01:40:18.392Z,71.28
2019-01-11T01:42:46.109Z,71.50
2019-01-11T01:45:15.479Z,71.71
2019-01-11T01:47:43.921Z,72.01
2019-01-11T01:50:12.976Z,72.17
2019-01-11T01:52:40.826Z,71.95
2019-01-11T01:55:09.579Z,71.73
2019-01-11T01:57:37.313Z,71.90
2019-01-11T02:00:08.729Z,71.89
2019-01-11T02:02:36.819Z,72.07
2019-01-11T02:05:06.407Z,72.06
2019-01-11T02:07:34.177Z,71.54
2019-01-11T02:10:02.452Z,71.33
2019-01-11T02:12:30.371Z,71.57
2019-01-11T02:14:58.103Z,71.62
2019-01-11T02:17:25.859Z,72.02
2019-01-11T02:19:53.657Z,72.66
2019-01-11T02:22:21.413Z,72.93
2019-01-11T02:24:49.359Z,72.44
2019-01-11T02:27:17.119Z,72.17
2019-01-11T02:29:45.026Z,72.46
2019-01-11T02:32:12.812Z,72.73
2019-01-11T02:34:40.770Z,73.17
2019-01-11T02:37:08.525Z,72.90
2019-01-11T02:39:36.467Z,72.98
2019-01-11T02:42:04.331Z,73.07
2019-01-11T02:44:32.660Z,72.78
2019-01-11T02:47:01.806Z,72.21
2019-01-11T02:49:30.673Z,72.65
2019-01-11T02:51:58.435Z,72.33
2019-01-11T02:54:26.170Z,72.80
2019-01-11T02:56:54.063Z,73.14
2019-01-11T02:59:21.976Z,73.47
2019-01-11T03:01:49.723Z,73.15
2019-01-11T03:04:17.862Z,73.40
2019-01-11T03:06:45.650Z,73.36
2019-01-11T03:09:13.585Z,73.52
2019-01-11T03:11:41.364Z,72.98
2019-01-11T03:14:09.109Z,73.03
2019-01-11T03:16:36.985Z,73.07
2019-01-11T03:19:04.767Z,73.58
2019-01-11T03:21:32.514Z,72.88
2019-01-11T03:24:00.289Z,72.83
2019-01-11T03:26:28.188Z,73.20
2019-01-11T03:28:56.104Z,72.99
2019-01-11T03:31:49.316Z,72.64
2019-01-11T03:34:17.319Z,73.15
2019-01-11T03:36:45.072Z,73.27
2019-01-11T03:39:13.196Z,73.40
2019-01-11T03:42:06.743Z,73.71
2019-01-11T03:44:34.627Z,74.14
2019-01-11T03:47:02.587Z,74.67
2019-01-11T03:49:30.486Z,75.11
2019-01-11T03:51:58.463Z,75.64
2019-01-11T03:54:26.182Z,75.93
2019-01-11T03:56:54.143Z,76.84
2019-01-11T03:59:22.020Z,76.56
2019-01-11T04:01:49.930Z,76.93
2019-01-11T04:04:17.882Z,77.78
2019-01-11T04:06:45.626Z,76.98
2019-01-11T04:09:13.394Z,78.00
2019-01-11T04:11:41.356Z,78.91
2019-01-11T04:14:09.132Z,79.06
2019-01-11T04:16:37.058Z,79.67
2019-01-11T04:19:08.070Z,79.70
2019-01-11T04:21:35.812Z,79.90
2019-01-11T04:24:03.547Z,79.92
2019-01-11T04:26:31.683Z,79.86
2019-01-11T04:28:59.631Z,80.01
2019-01-11T04:31:27.433Z,80.60
2019-01-11T04:33:57.944Z,80.64
2019-01-11T04:36:25.943Z,80.94
2019-01-11T04:38:53.791Z,80.89
2019-01-11T04:41:21.619Z,81.25
2019-01-11T04:43:49.504Z,81.50
2019-01-11T04:46:17.385Z,82.21
2019-01-11T04:48:45.557Z,82.13
2019-01-11T04:51:13.347Z,82.42
2019-01-11T04:53:41.264Z,81.68
2019-01-11T04:56:09.076Z,81.98
2019-01-11T04:58:37.026Z,82.47
2019-01-11T05:01:05.032Z,82.63
2019-01-11T05:03:32.952Z,82.34
2019-01-11T05:06:00.689Z,82.93
2019-01-11T05:08:28.614Z,83.17
2019-01-11T05:10:56.517Z,82.90
2019-01-11T05:13:35.673Z,82.74
2019-01-11T05:16:03.614Z,82.78
2019-01-11T05:18:31.613Z,83.07
2019-01-11T05:20:59.459Z,83.19
2019-01-11T05:23:27.371Z,82.75
2019-01-11T05:25:56.320Z,82.60
2019-01-11T05:28:24.662Z,82.92
2019-01-11T05:30:52.650Z,83.19
2019-01-11T05:33:21.836Z,83.49
2019-01-11T05:35:49.766Z,82.93
2019-01-11T05:38:17.784Z,83.64
2019-01-11T05:40:45.717Z,83.62
2019-01-11T05:43:13.436Z,83.54
2019-01-11T05:45:41.358Z,83.52
2019-01-11T05:48:10.314Z,83.49
2019-01-11T05:50:38.075Z,84.00
2019-01-11T05:53:06.244Z,84.43
2019-01-11T05:55:44.202Z,85.97
2019-01-11T05:58:37.893Z,85.88
2019-01-11T06:01:06.047Z,86.07
2019-01-11T06:03:33.989Z,86.03
2019-01-11T06:06:01.903Z,85.98
2019-01-11T06:08:30.661Z,85.83
2019-01-11T06:10:58.425Z,86.18
2019-01-11T06:13:26.168Z,86.65
2019-01-11T06:15:53.930Z,86.79
2019-01-11T06:18:22.203Z,86.96
2019-01-11T06:20:50.053Z,87.66
2019-01-11T06:23:17.998Z,87.43
2019-01-11T06:25:45.772Z,87.48
2019-01-11T06:28:13.544Z,87.61
2019-01-11T06:30:41.270Z,87.40
2019-01-11T06:33:09.018Z,87.83
2019-01-11T06:35:36.964Z,87.66
2019-01-11T06:38:04.715Z,87.38
2019-01-11T06:40:32.623Z,86.73
2019-01-11T06:43:03.673Z,86.74
2019-01-11T06:45:30.210Z,87.23
2019-01-11T06:47:58.169Z,87.72
2019-01-11T06:50:25.951Z,87.16
2019-01-11T06:52:53.893Z,87.05
2019-01-11T06:55:21.665Z,86.61
2019-01-11T06:57:49.465Z,87.50
2019-01-11T07:00:17.417Z,87.24
2019-01-11T07:02:45.493Z,87.37
2019-01-11T07:05:14.038Z,86.81
2019-01-11T07:07:42.483Z,87.51
2019-01-11T07:10:14.841Z,87.66
2019-01-11T07:12:42.794Z,87.59
2019-01-11T07:15:11.039Z,87.57
2019-01-11T07:17:38.824Z,87.86
2019-01-11T07:20:08.174Z,87.27
2019-01-11T07:22:40.541Z,87.57
2019-01-11T07:25:08.982Z,87.61
2019-01-11T07:27:42.026Z,87.65
2019-01-11T07:30:10.812Z,87.58
2019-01-11T07:32:38.592Z,88.13
2019-01-11T07:35:06.748Z,88.51
2019-01-11T07:37:34.718Z,88.93
2019-01-11T07:40:03.311Z,89.47
2019-01-11T07:42:31.281Z,89.84
2019-01-11T07:44:59.108Z,90.11
2019-01-11T07:47:26.872Z,89.93
2019-01-11T07:49:54.638Z,89.56
2019-01-11T07:52:22.436Z,89.78
2019-01-11T07:54:50.373Z,90.52
2019-01-11T07:57:18.167Z,90.40
2019-01-11T07:59:46.266Z,90.33
2019-01-11T08:02:14.101Z,90.37
2019-01-11T08:04:42.013Z,90.71
2019-01-11T08:07:10.111Z,91.13
2019-01-11T08:09:37.876Z,90.35
2019-01-11T08:12:05.648Z,90.36
2019-01-11T08:14:33.411Z,89.97
2019-01-11T08:17:01.169Z,90.10
2019-01-11T08:19:28.911Z,90.48
2019-01-11T08:21:56.651Z,89.98
2019-01-11T08:24:24.645Z,90.18
2019-01-11T08:26:52.891Z,89.45
2019-01-11T08:29:21.004Z,89.99
2019-01-11T08:31:48.740Z,89.41
2019-01-11T08:34:16.499Z,89.14
2019-01-11T08:36:44.251Z,89.04
2019-01-11T08:39:12.028Z,89.21
2019-01-11T08:41:39.775Z,89.00
2019-01-11T08:44:07.640Z,88.97
2019-01-11T08:46:35.446Z,89.29
2019-01-11T08:49:03.215Z,88.97
2019-01-11T08:51:31.035Z,88.95
2019-01-11T08:53:58.787Z,88.75
2019-01-11T08:56:26.525Z,88.47
2019-01-11T08:58:54.325Z,88.40
2019-01-11T09:01:22.111Z,88.71
2019-01-11T09:03:50.063Z,88.86
2019-01-11T09:06:19.828Z,89.37
2019-01-11T09:08:48.189Z,89.60
2019-01-11T09:11:16.446Z,89.28
2019-01-11T09:13:44.415Z,89.32
2019-01-11T09:16:12.179Z,89.64
2019-01-11T09:18:45.327Z,89.10
2019-01-11T09:21:13.308Z,89.22
2019-01-11T09:23:41.405Z,88.67
2019-01-11T09:26:10.028Z,88.17
2019-01-11T09:28:37.790Z,88.05
2019-01-11T09:31:05.774Z,88.15
2019-01-11T09:33:33.502Z,88.06
2019-01-11T09:36:01.256Z,87.86
2019-01-11T09:38:29.026Z,87.96
2019-01-11T09:40:56.988Z,88.79
2019-01-11T09:43:25.828Z,88.82
2019-01-11T09:45:53.702Z,88.79
2019-01-11T09:48:21.416Z,88.72
2019-01-11T09:50:49.216Z,88.97
2019-01-11T09:53:16.973Z,88.93
2019-01-11T09:55:44.949Z,88.85
2019-01-11T09:58:12.731Z,88.74
2019-01-11T10:00:40.828Z,87.84
2019-01-11T10:03:10.157Z,87.28
2019-01-11T10:05:38.123Z,87.41
2019-01-11T10:08:06.071Z,87.43
2019-01-11T10:10:33.830Z,87.86
2019-01-11T10:13:01.582Z,87.70
2019-01-11T10:15:29.499Z,88.28
2019-01-11T10:17:58.102Z,88.44
2019-01-11T10:20:26.068Z,88.53
2019-01-11T10:22:53.894Z,88.46
2019-01-11T10:25:21.713Z,87.45
2019-01-11T10:27:49.553Z,87.31
2019-01-11T10:30:18.838Z,87.73
2019-01-11T10:32:46.743Z,87.74
2019-01-11T10:35:14.643Z,87.87
2019-01-11T10:37:42.532Z,87.50
2019-01-11T10:40:12.866Z,87.60
2019-01-11T10:42:41.098Z,87.72
2019-01-11T10:45:13.393Z,86.76
2019-01-11T10:47:41.297Z,87.68
2019-01-11T10:50:12.697Z,87.49
2019-01-11T10:52:40.726Z,87.02
2019-01-11T10:55:10.154Z,87.51
2019-01-11T10:57:37.921Z,87.92
2019-01-11T11:00:14.449Z,88.33
2019-01-11T11:02:42.249Z,88.46
2019-01-11T11:05:10.131Z,88.05
2019-01-11T11:07:38.095Z,87.47
2019-01-11T11:10:07.496Z,86.87
2019-01-11T11:12:35.435Z,86.32
2019-01-11T11:15:05.111Z,86.68
2019-01-11T11:17:34.369Z,86.73
2019-01-11T11:20:02.561Z,86.87
2019-01-11T11:22:30.335Z,86.91
2019-01-11T11:24:58.349Z,86.50
2019-01-11T11:27:26.325Z,86.66
2019-01-11T11:29:54.083Z,86.49
2019-01-11T11:32:30.439Z,87.06
2019-01-11T11:34:58.179Z,86.22
2019-01-11T11:37:28.016Z,85.81
2019-01-11T11:39:55.815Z,85.83
2019-01-11T11:42:23.690Z,85.79
2019-01-11T11:44:51.474Z,86.55
2019-01-11T11:47:19.259Z,86.07
2019-01-11T11:49:47.021Z,86.06
2019-01-11T11:52:16.116Z,84.87
2019-01-11T11:54:44.070Z,85.22
2019-01-11T11:57:12.042Z,84.49
2019-01-11T11:59:40.540Z,84.55
2019-01-11T12:02:08.488Z,84.42
2019-01-11T12:04:36.224Z,84.11
2019-01-11T12:07:07.633Z,83.79
2019-01-11T12:09:34.260Z,83.68
2019-01-11T12:12:14.465Z,83.58
2019-01-11T12:14:42.294Z,84.12
2019-01-11T12:17:10.256Z,83.90
2019-01-11T12:19:38.023Z,83.69
2019-01-11T12:22:05.815Z,84.57
2019-01-11T12:24:33.620Z,84.22
2019-01-11T12:27:01.387Z,84.46
2019-01-11T12:29:29.411Z,84.42
2019-01-11T12:31:57.221Z,84.22
2019-01-11T12:34:25.021Z,84.19
2019-01-11T12:36:52.768Z,84.66
2019-01-11T12:39:20.575Z,84.83
2019-01-11T12:41:48.324Z,84.51
2019-01-11T12:44:16.082Z,84.73
2019-01-11T12:46:43.856Z,84.73
2019-01-11T12:49:11.649Z,84.48
2019-01-11T12:51:39.403Z,84.41
2019-01-11T12:54:07.291Z,83.77
2019-01-11T12:56:35.203Z,83.85
2019-01-11T12:59:03.003Z,83.55
2019-01-11T13:01:30.823Z,83.24
2019-01-11T13:03:58.625Z,83.33
2019-01-11T13:06:27.476Z,83.29
2019-01-11T13:08:55.244Z,84.04
2019-01-11T13:11:23.017Z,84.07
2019-01-11T13:13:50.764Z,84.23
2019-01-11T13:16:18.571Z,84.23
2019-01-11T13:18:46.316Z,85.14
2019-01-11T13:21:14.355Z,85.12
2019-01-11T13:23:42.227Z,85.43
2019-01-11T13:26:13.022Z,86.25
2019-01-11T13:28:41.006Z,86.18
2019-01-11T13:31:08.758Z,86.72
2019-01-11T13:33:36.503Z,86.83
2019-01-11T13:36:09.992Z,87.07
2019-01-11T13:38:38.204Z,87.33
2019-01-11T13:41:05.923Z,87.66
2019-01-11T13:43:33.755Z,87.75
2019-01-11T13:46:01.686Z,87.46
2019-01-11T13:48:29.553Z,86.86
2019-01-11T13:51:00.352Z,87.61
2019-01-11T13:53:28.084Z,86.99
2019-01-11T13:55:55.876Z,87.09
2019-01-11T13:58:23.836Z,87.49
2019-01-11T14:00:51.652Z,87.60
2019-01-11T14:03:19.403Z,87.93
2019-01-11T14:05:47.186Z,87.54
2019-01-11T14:08:14.978Z,87.41
2019-01-11T14:10:42.741Z,87.46
2019-01-11T14:13:10.512Z,87.63
2019-01-11T14:15:38.333Z,87.74
2019-01-11T14:18:06.775Z,88.03
2019-01-11T14:20:34.700Z,88.47
2019-01-11T14:23:02.591Z,89.10
2019-01-11T14:25:30.381Z,89.27
2019-01-11T14:27:58.159Z,90.04
2019-01-11T14:30:25.888Z,90.23
2019-01-11T14:32:53.633Z,90.52
2019-01-11T14:35:21.397Z,90.20
2019-01-11T14:37:49.207Z,90.24
2019-01-11T14:40:17.267Z,90.44
2019-01-11T14:42:45.036Z,90.86
2019-01-11T14:45:14.761Z,91.19
2019-01-11T14:47:42.561Z,91.12
2019-01-11T14:50:13.556Z,90.92
2019-01-11T14:52:41.434Z,91.08
2019-01-11T14:55:09.798Z,90.96
2019-01-11T14:57:37.751Z,91.43
2019-01-11T15:00:09.840Z,91.18
2019-01-11T15:02:37.647Z,91.12
2019-01-11T15:05:07.650Z,91.36
2019-01-11T15:07:35.389Z,91.27
2019-01-11T15:10:04.319Z,91.46
2019-01-11T15:12:32.091Z,91.20
2019-01-11T15:14:59.957Z,91.11
2019-01-11T15:17:27.739Z,91.24
2019-01-11T15:19:55.514Z,90.96
2019-01-11T15:22:26.515Z,90.69
2019-01-11T15:24:52.972Z,90.96
2019-01-11T15:27:20.728Z,91.35
2019-01-11T15:29:48.647Z,91.51
2019-01-11T15:32:16.417Z,91.12
2019-01-11T15:34:44.306Z,91.35
2019-01-11T15:37:12.128Z,91.61
2019-01-11T15:39:41.927Z,91.91
2019-01-11T15:42:10.160Z,91.61
2019-01-11T15:44:38.244Z,90.84
2019-01-11T15:47:05.968Z,91.55
2019-01-11T15:49:33.839Z,91.57
2019-01-11T15:52:01.584Z,91.49
2019-01-11T15:54:29.364Z,91.25
2019-01-11T15:56:57.136Z,91.44
2019-01-11T15:59:24.889Z,91.59
2019-01-11T16:01:54.114Z,91.67
2019-01-11T16:04:21.888Z,91.27
2019-01-11T16:06:50.204Z,91.23
2019-01-11T16:09:58.855Z,91.19
2019-01-11T16:12:51.847Z,91.31
2019-01-11T16:16:01.133Z,91.73
2019-01-11T16:18:30.998Z,91.99
2019-01-11T16:20:58.959Z,91.75
2019-01-11T16:23:26.741Z,91.88
2019-01-11T16:25:54.659Z,91.90
2019-01-11T16:28:22.469Z,92.13
2019-01-11T16:30:50.248Z,92.69
2019-01-11T16:33:18.053Z,92.79
2019-01-11T16:35:45.830Z,92.79
2019-01-11T16:38:13.612Z,92.86
2019-01-11T16:40:41.365Z,92.73
2019-01-11T16:43:09.151Z,93.02
2019-01-11T16:45:36.883Z,93.07
2019-01-11T16:48:04.726Z,93.02
2019-01-11T16:50:32.535Z,92.74
2019-01-11T16:53:00.331Z,92.30
2019-01-11T16:55:28.115Z,92.39
2019-01-11T16:57:55.878Z,92.35
2019-01-11T17:00:23.635Z,92.02
2019-01-11T17:02:51.421Z,92.43
2019-01-11T17:05:20.469Z,92.48
2019-01-11T17:07:48.237Z,92.12
2019-01-11T17:10:15.966Z,92.16
2019-01-11T17:12:43.782Z,92.10
2019-01-11T17:15:14.579Z,91.78
2019-01-11T17:17:42.392Z,91.56
2019-01-11T17:20:16.138Z,91.83
2019-01-11T17:22:43.860Z,91.74
2019-01-11T17:25:11.770Z,91.59
2019-01-11T17:27:39.616Z,91.72
2019-01-11T17:30:13.442Z,92.10
2019-01-11T17:32:41.331Z,92.15
2019-01-11T17:35:09.524Z,92.13
2019-01-11T17:37:37.322Z,92.85
2019-01-11T17:40:06.219Z,93.10
2019-01-11T17:42:33.954Z,92.34
2019-01-11T17:45:01.736Z,91.60
2019-01-11T17:47:29.496Z,91.46
2019-01-11T17:50:01.037Z,91.59
2019-01-11T17:52:26.985Z,91.78
2019-01-11T17:54:54.794Z,91.31
2019-01-11T17:57:22.598Z,91.03
2019-01-11T17:59:50.362Z,91.24
2019-01-11T18:02:18.247Z,91.20
2019-01-11T18:04:46.027Z,90.53
2019-01-11T18:07:13.831Z,91.09
2019-01-11T18:09:41.640Z,90.92
2019-01-11T18:12:10.536Z,91.15
2019-01-11T18:14:38.358Z,91.07
2019-01-11T18:17:06.178Z,90.90
2019-01-11T18:19:33.983Z,91.02
2019-01-11T18:22:02.089Z,90.58
2019-01-11T18:24:30.922Z,90.30
2019-01-11T18:26:58.747Z,90.17
2019-01-11T18:29:27.610Z,89.47
2019-01-11T18:31:55.427Z,89.65
2019-01-11T18:34:23.183Z,90.11
2019-01-11T18:36:52.701Z,91.08
2019-01-11T18:39:20.478Z,90.84
2019-01-11T18:41:48.275Z,90.44
2019-01-11T18:44:16.020Z,90.44
2019-01-11T18:46:43.819Z,90.16
2019-01-11T18:49:11.562Z,90.75
2019-01-11T18:51:39.352Z,89.88
2019-01-11T18:54:07.374Z,90.20
2019-01-11T18:56:35.163Z,90.44
2019-01-11T18:59:02.998Z,89.85
2019-01-11T19:01:30.775Z,89.46
2019-01-11T19:03:58.555Z,89.30
2019-01-11T19:06:27.431Z,89.59
2019-01-11T19:08:55.195Z,89.68
2019-01-11T19:11:23.067Z,89.70
2019-01-11T19:13:50.854Z,89.88
2019-01-11T19:16:18.649Z,89.92
2019-01-11T19:18:47.246Z,89.46
2019-01-11T19:21:15.170Z,90.40
2019-01-11T19:23:42.962Z,90.95
2019-01-11T19:26:10.775Z,91.41
2019-01-11T19:28:38.845Z,90.19
2019-01-11T19:31:07.438Z,90.29
2019-01-11T19:33:35.220Z,90.16
2019-01-11T19:36:03.203Z,89.45
2019-01-11T19:38:30.982Z,89.29
2019-01-11T19:40:58.776Z,89.71
2019-01-11T19:43:26.554Z,89.27
2019-01-11T19:45:54.362Z,89.59
2019-01-11T19:48:22.141Z,89.40
2019-01-11T19:50:51.012Z,89.04
2019-01-11T19:53:20.006Z,89.08
2019-01-11T19:55:47.798Z,89.00
2019-01-11T19:58:15.632Z,89.67
2019-01-11T20:00:44.525Z,89.53
2019-01-11T20:03:12.360Z,89.36
2019-01-11T20:05:40.466Z,89.10
2019-01-11T20:08:09.554Z,89.49
2019-01-11T20:10:37.476Z,89.99
2019-01-11T20:13:05.362Z,89.60
2019-01-11T20:15:33.207Z,89.68
2019-01-11T20:18:01.445Z,89.53
2019-01-11T20:20:29.288Z,89.19
2019-01-11T20:23:02.145Z,90.28
2019-01-11T20:25:26.992Z,90.19
2019-01-11T20:27:58.005Z,90.66
2019-01-11T20:30:27.370Z,90.02
2019-01-11T20:32:55.225Z,90.07
2019-01-11T20:35:23.227Z,90.00
2019-01-11T20:37:51.707Z,89.84
2019-01-11T20:40:19.647Z,88.98
2019-01-11T20:42:48.253Z,89.09
2019-01-11T20:45:18.689Z,88.71
2019-01-11T20:47:46.527Z,88.94
2019-01-11T20:50:20.552Z,88.61
2019-01-11T20:52:48.342Z,88.50
2019-01-11T20:55:16.225Z,88.92
2019-01-11T20:57:44.589Z,88.75
2019-01-11T21:00:22.573Z,89.12
2019-01-11T21:02:50.533Z,89.41
2019-01-11T21:05:19.133Z,89.18
2019-01-11T21:07:46.973Z,89.09
2019-01-11T21:10:15.217Z,89.37
2019-01-11T21:12:43.000Z,89.22
2019-01-11T21:15:12.023Z,89.24
2019-01-11T21:17:39.865Z,89.28
2019-01-11T21:20:10.546Z,89.20
2019-01-11T21:22:38.438Z,88.94
2019-01-11T21:25:08.534Z,89.00
2019-01-11T21:27:37.271Z,89.03
2019-01-11T21:30:11.092Z,89.25
2019-01-11T21:32:38.831Z,89.01
2019-01-11T21:35:07.446Z,88.33
2019-01-11T21:37:35.207Z,88.18
2019-01-11T21:40:04.237Z,88.73
2019-01-11T21:42:32.001Z,89.37
2019-01-11T21:45:03.530Z,89.44
2019-01-11T21:47:31.338Z,89.39
2019-01-11T21:49:59.271Z,89.64
2019-01-11T21:52:27.048Z,89.44
2019-01-11T21:54:54.933Z,89.07
2019-01-11T21:57:22.827Z,88.70
2019-01-11T21:59:50.664Z,87.85
2019-01-11T22:02:18.373Z,88.19
2019-01-11T22:04:46.608Z,88.66
2019-01-11T22:07:14.577Z,88.11
2019-01-11T22:09:42.508Z,88.23
2019-01-11T22:12:10.344Z,88.28
2019-01-11T22:14:38.299Z,87.74
2019-01-11T22:17:06.285Z,87.34
2019-01-11T22:19:34.146Z,87.13
2019-01-11T22:22:02.122Z,87.14
2019-01-11T22:24:30.252Z,87.40
2019-01-11T22:26:58.013Z,87.21
2019-01-11T22:29:26.100Z,87.54
2019-01-11T22:31:54.032Z,87.19
2019-01-11T22:34:21.972Z,87.52
2019-01-11T22:36:49.780Z,87.59
2019-01-11T22:39:20.136Z,87.78
2019-01-11T22:41:47.981Z,87.55
2019-01-11T22:44:15.817Z,87.02
2019-01-11T22:46:43.733Z,87.05
2019-01-11T22:49:11.463Z,87.46
2019-01-11T22:51:39.274Z,87.79
2019-01-11T22:54:10.526Z,87.36
2019-01-11T22:56:36.740Z,87.10
2019-01-11T22:59:04.517Z,87.28
2019-01-11T23:01:57.637Z,87.08
2019-01-11T23:04:25.473Z,87.12
2019-01-11T23:07:32.845Z,87.12
2019-01-11T23:10:15.268Z,87.08
2019-01-11T23:13:00.961Z,87.17
2019-01-11T23:15:35.729Z,87.15
2019-01-11T23:18:11.221Z,87.20
2019-01-11T23:20:39.034Z,87.56
2019-01-11T23:23:06.809Z,87.64
2019-01-11T23:25:34.558Z,87.36
2019-01-11T23:28:02.306Z,87.03
2019-01-11T23:30:30.119Z,87.04
2019-01-11T23:32:58.240Z,85.87
2019-01-11T23:35:26.007Z,85.76
2019-01-11T23:37:53.750Z,86.42
2019-01-11T23:40:21.515Z,85.90
2019-01-11T23:42:49.313Z,84.66
2019-01-11T23:45:17.139Z,84.91
2019-01-11T23:47:44.869Z,84.56
2019-01-11T23:50:15.885Z,85.40
2019-01-11T23:52:43.984Z,84.76
2019-01-11T23:55:11.998Z,84.49
2019-01-11T23:57:39.766Z,84.58
